sensor_id;sensor_type;location;lat;lon;timestamp;temperature;humidity
23803;DHT22;12082;51.786;6.018;2022-08-03T00:02:22;17.80;99.90
23803;DHT22;12082;51.786;6.018;2022-08-03T00:04:48;17.70;99.90
23803;DHT22;12082;51.786;6.018;2022-08-03T00:07:13;17.70;99.90
23803;DHT22;12082;51.786;6.018;2022-08-03T00:09:39;17.70;99.90
23803;DHT22;12082;51.786;6.018;2022-08-03T00:12:05;17.70;99.90
23803;DHT22;12082;51.786;6.018;2022-08-03T00:14:31;17.60;99.90
23803;DHT22;12082;51.786;6.018;2022-08-03T00:16:56;17.60;99.90
23803;DHT22;12082;51.786;6.018;2022-08-03T00:19:22;17.60;99.90
23803;DHT22;12082;51.786;6.018;2022-08-03T00:21:48;17.60;99.90
23803;DHT22;12082;51.786;6.018;2022-08-03T00:24:13;17.60;99.90
23803;DHT22;12082;51.786;6.018;2022-08-03T00:26:39;17.60;99.90
23803;DHT22;12082;51.786;6.018;2022-08-03T00:29:04;17.60;99.90
23803;DHT22;12082;51.786;6.018;2022-08-03T00:31:30;17.50;99.90
23803;DHT22;12082;51.786;6.018;2022-08-03T00:33:55;17.50;99.90
23803;DHT22;12082;51.786;6.018;2022-08-03T00:36:21;17.50;99.90
23803;DHT22;12082;51.786;6.018;2022-08-03T00:38:47;17.50;99.90
23803;DHT22;12082;51.786;6.018;2022-08-03T00:41:12;17.50;99.90
23803;DHT22;12082;51.786;6.018;2022-08-03T00:43:38;17.40;99.90
23803;DHT22;12082;51.786;6.018;2022-08-03T00:46:03;17.40;99.90
23803;DHT22;12082;51.786;6.018;2022-08-03T00:48:29;17.40;99.90
23803;DHT22;12082;51.786;6.018;2022-08-03T00:50:55;17.40;99.90
23803;DHT22;12082;51.786;6.018;2022-08-03T00:53:20;17.30;99.90
23803;DHT22;12082;51.786;6.018;2022-08-03T00:55:46;17.30;99.90
23803;DHT22;12082;51.786;6.018;2022-08-03T00:58:12;17.20;99.90
23803;DHT22;12082;51.786;6.018;2022-08-03T01:00:39;17.20;99.90
23803;DHT22;12082;51.786;6.018;2022-08-03T01:03:09;17.20;99.90
23803;DHT22;12082;51.786;6.018;2022-08-03T01:05:57;17.20;99.90
23803;DHT22;12082;51.786;6.018;2022-08-03T01:11:11;17.10;99.90
23803;DHT22;12082;51.786;6.018;2022-08-03T01:13:40;17.00;99.90
23803;DHT22;12082;51.786;6.018;2022-08-03T01:16:23;16.90;99.90
23803;DHT22;12082;51.786;6.018;2022-08-03T01:25:05;16.90;99.90
23803;DHT22;12082;51.786;6.018;2022-08-03T01:30:30;16.80;99.90
23803;DHT22;12082;51.786;6.018;2022-08-03T01:33:01;16.80;99.90
23803;DHT22;12082;51.786;6.018;2022-08-03T01:35:34;16.80;99.90
23803;DHT22;12082;51.786;6.018;2022-08-03T01:38:03;16.80;99.90
23803;DHT22;12082;51.786;6.018;2022-08-03T01:40:33;16.70;99.90
23803;DHT22;12082;51.786;6.018;2022-08-03T01:43:01;16.70;99.90
23803;DHT22;12082;51.786;6.018;2022-08-03T01:45:27;16.60;99.90
23803;DHT22;12082;51.786;6.018;2022-08-03T01:47:54;16.60;99.90
23803;DHT22;12082;51.786;6.018;2022-08-03T01:50:23;16.60;99.90
23803;DHT22;12082;51.786;6.018;2022-08-03T01:52:51;16.60;99.90
23803;DHT22;12082;51.786;6.018;2022-08-03T01:55:18;16.50;99.90
23803;DHT22;12082;51.786;6.018;2022-08-03T01:57:44;16.60;99.90
23803;DHT22;12082;51.786;6.018;2022-08-03T02:00:13;16.50;99.90
23803;DHT22;12082;51.786;6.018;2022-08-03T02:02:41;16.50;99.90
23803;DHT22;12082;51.786;6.018;2022-08-03T02:05:09;16.50;99.90
23803;DHT22;12082;51.786;6.018;2022-08-03T02:07:36;16.50;99.90
23803;DHT22;12082;51.786;6.018;2022-08-03T02:10:05;16.50;99.90
23803;DHT22;12082;51.786;6.018;2022-08-03T02:12:33;16.50;99.90
23803;DHT22;12082;51.786;6.018;2022-08-03T02:15:00;16.70;99.90
23803;DHT22;12082;51.786;6.018;2022-08-03T02:17:27;16.50;99.90
23803;DHT22;12082;51.786;6.018;2022-08-03T02:19:55;16.50;99.90
23803;DHT22;12082;51.786;6.018;2022-08-03T02:22:23;16.70;99.90
23803;DHT22;12082;51.786;6.018;2022-08-03T02:24:49;16.50;99.90
23803;DHT22;12082;51.786;6.018;2022-08-03T02:27:21;16.50;99.90
23803;DHT22;12082;51.786;6.018;2022-08-03T02:29:52;16.50;99.90
23803;DHT22;12082;51.786;6.018;2022-08-03T02:32:23;16.50;99.90
23803;DHT22;12082;51.786;6.018;2022-08-03T02:34:50;16.50;99.90
23803;DHT22;12082;51.786;6.018;2022-08-03T02:37:18;16.30;99.90
23803;DHT22;12082;51.786;6.018;2022-08-03T02:39:46;16.40;99.90
23803;DHT22;12082;51.786;6.018;2022-08-03T02:42:14;16.40;99.90
23803;DHT22;12082;51.786;6.018;2022-08-03T02:44:41;16.50;99.90
23803;DHT22;12082;51.786;6.018;2022-08-03T02:47:12;16.50;99.90
23803;DHT22;12082;51.786;6.018;2022-08-03T02:49:40;16.50;99.90
23803;DHT22;12082;51.786;6.018;2022-08-03T02:52:09;16.50;99.90
23803;DHT22;12082;51.786;6.018;2022-08-03T02:54:37;16.40;99.90
23803;DHT22;12082;51.786;6.018;2022-08-03T02:57:03;16.40;99.90
23803;DHT22;12082;51.786;6.018;2022-08-03T02:59:33;16.40;99.90
23803;DHT22;12082;51.786;6.018;2022-08-03T03:02:02;16.40;99.90
23803;DHT22;12082;51.786;6.018;2022-08-03T03:04:29;16.50;99.90
23803;DHT22;12082;51.786;6.018;2022-08-03T03:06:55;16.80;99.90
23803;DHT22;12082;51.786;6.018;2022-08-03T03:09:21;17.20;99.90
23803;DHT22;12082;51.786;6.018;2022-08-03T03:11:48;17.50;99.90
23803;DHT22;12082;51.786;6.018;2022-08-03T03:14:15;17.80;99.90
23803;DHT22;12082;51.786;6.018;2022-08-03T03:16:43;18.00;99.90
23803;DHT22;12082;51.786;6.018;2022-08-03T03:19:10;18.30;99.90
23803;DHT22;12082;51.786;6.018;2022-08-03T03:21:37;18.40;99.90
23803;DHT22;12082;51.786;6.018;2022-08-03T03:24:05;18.50;99.90
23803;DHT22;12082;51.786;6.018;2022-08-03T03:26:33;18.70;99.90
23803;DHT22;12082;51.786;6.018;2022-08-03T03:29:00;18.70;99.90
23803;DHT22;12082;51.786;6.018;2022-08-03T03:31:26;18.70;99.90
23803;DHT22;12082;51.786;6.018;2022-08-03T03:33:52;18.70;99.90
23803;DHT22;12082;51.786;6.018;2022-08-03T03:36:19;18.70;99.90
23803;DHT22;12082;51.786;6.018;2022-08-03T03:38:44;18.70;99.90
23803;DHT22;12082;51.786;6.018;2022-08-03T03:41:10;18.80;99.90
23803;DHT22;12082;51.786;6.018;2022-08-03T03:43:36;18.90;99.90
23803;DHT22;12082;51.786;6.018;2022-08-03T03:46:02;18.90;99.90
23803;DHT22;12082;51.786;6.018;2022-08-03T03:48:28;18.90;99.90
23803;DHT22;12082;51.786;6.018;2022-08-03T03:50:53;18.90;99.90
23803;DHT22;12082;51.786;6.018;2022-08-03T03:53:22;18.90;99.90
23803;DHT22;12082;51.786;6.018;2022-08-03T03:55:47;18.90;99.90
23803;DHT22;12082;51.786;6.018;2022-08-03T03:58:13;18.90;99.90
23803;DHT22;12082;51.786;6.018;2022-08-03T04:00:39;18.90;99.90
23803;DHT22;12082;51.786;6.018;2022-08-03T04:03:04;18.90;99.90
23803;DHT22;12082;51.786;6.018;2022-08-03T04:05:30;18.90;99.90
23803;DHT22;12082;51.786;6.018;2022-08-03T04:08:17;19.00;99.90
23803;DHT22;12082;51.786;6.018;2022-08-03T04:16:13;19.00;99.90
23803;DHT22;12082;51.786;6.018;2022-08-03T04:18:43;18.90;99.90
23803;DHT22;12082;51.786;6.018;2022-08-03T04:21:14;18.90;99.90
23803;DHT22;12082;51.786;6.018;2022-08-03T04:23:43;19.00;99.90
23803;DHT22;12082;51.786;6.018;2022-08-03T04:26:11;19.00;99.90
23803;DHT22;12082;51.786;6.018;2022-08-03T04:28:41;19.00;99.90
23803;DHT22;12082;51.786;6.018;2022-08-03T04:31:07;19.10;99.90
23803;DHT22;12082;51.786;6.018;2022-08-03T04:33:36;19.10;99.90
23803;DHT22;12082;51.786;6.018;2022-08-03T04:36:05;19.10;99.90
23803;DHT22;12082;51.786;6.018;2022-08-03T04:38:36;19.10;99.90
23803;DHT22;12082;51.786;6.018;2022-08-03T04:41:03;19.10;99.90
23803;DHT22;12082;51.786;6.018;2022-08-03T04:43:30;19.10;99.90
23803;DHT22;12082;51.786;6.018;2022-08-03T04:45:58;19.00;99.90
23803;DHT22;12082;51.786;6.018;2022-08-03T04:48:24;19.00;99.90
23803;DHT22;12082;51.786;6.018;2022-08-03T04:50:50;19.00;99.90
23803;DHT22;12082;51.786;6.018;2022-08-03T04:53:16;19.00;99.90
23803;DHT22;12082;51.786;6.018;2022-08-03T04:55:42;18.90;99.90
23803;DHT22;12082;51.786;6.018;2022-08-03T04:58:08;19.00;99.90
23803;DHT22;12082;51.786;6.018;2022-08-03T05:00:34;19.00;99.90
23803;DHT22;12082;51.786;6.018;2022-08-03T05:02:59;19.00;99.90
23803;DHT22;12082;51.786;6.018;2022-08-03T05:05:25;19.00;99.90
23803;DHT22;12082;51.786;6.018;2022-08-03T05:07:51;19.00;99.90
23803;DHT22;12082;51.786;6.018;2022-08-03T05:10:17;19.10;99.90
23803;DHT22;12082;51.786;6.018;2022-08-03T05:12:46;19.00;99.90
23803;DHT22;12082;51.786;6.018;2022-08-03T05:15:13;19.10;99.90
23803;DHT22;12082;51.786;6.018;2022-08-03T05:17:39;19.10;99.90
23803;DHT22;12082;51.786;6.018;2022-08-03T05:20:05;19.10;99.90
23803;DHT22;12082;51.786;6.018;2022-08-03T05:22:30;19.00;99.90
23803;DHT22;12082;51.786;6.018;2022-08-03T05:24:56;19.00;99.90
23803;DHT22;12082;51.786;6.018;2022-08-03T05:27:22;19.00;99.90
23803;DHT22;12082;51.786;6.018;2022-08-03T05:29:49;19.10;99.90
23803;DHT22;12082;51.786;6.018;2022-08-03T05:32:16;19.20;99.90
23803;DHT22;12082;51.786;6.018;2022-08-03T05:34:41;19.10;99.90
23803;DHT22;12082;51.786;6.018;2022-08-03T05:37:08;19.20;99.90
23803;DHT22;12082;51.786;6.018;2022-08-03T05:39:33;19.20;99.90
23803;DHT22;12082;51.786;6.018;2022-08-03T05:41:59;19.30;99.90
23803;DHT22;12082;51.786;6.018;2022-08-03T05:44:25;19.40;99.90
23803;DHT22;12082;51.786;6.018;2022-08-03T05:46:51;19.50;99.90
23803;DHT22;12082;51.786;6.018;2022-08-03T05:49:17;19.60;99.90
23803;DHT22;12082;51.786;6.018;2022-08-03T05:51:43;19.80;99.90
23803;DHT22;12082;51.786;6.018;2022-08-03T05:54:09;20.20;99.90
23803;DHT22;12082;51.786;6.018;2022-08-03T05:56:34;20.90;99.90
23803;DHT22;12082;51.786;6.018;2022-08-03T05:59:00;21.70;99.90
23803;DHT22;12082;51.786;6.018;2022-08-03T06:01:25;22.70;99.90
23803;DHT22;12082;51.786;6.018;2022-08-03T06:03:51;23.50;99.90
23803;DHT22;12082;51.786;6.018;2022-08-03T06:06:17;24.20;99.90
23803;DHT22;12082;51.786;6.018;2022-08-03T06:08:43;24.60;99.90
23803;DHT22;12082;51.786;6.018;2022-08-03T06:11:09;25.00;99.90
23803;DHT22;12082;51.786;6.018;2022-08-03T06:13:35;24.90;99.90
23803;DHT22;12082;51.786;6.018;2022-08-03T06:16:01;25.10;99.90
23803;DHT22;12082;51.786;6.018;2022-08-03T06:18:27;25.30;99.90
23803;DHT22;12082;51.786;6.018;2022-08-03T06:20:53;25.10;99.90
23803;DHT22;12082;51.786;6.018;2022-08-03T06:23:19;24.80;99.90
23803;DHT22;12082;51.786;6.018;2022-08-03T06:25:45;24.90;99.90
23803;DHT22;12082;51.786;6.018;2022-08-03T06:28:11;25.10;99.90
23803;DHT22;12082;51.786;6.018;2022-08-03T06:30:39;25.50;99.90
23803;DHT22;12082;51.786;6.018;2022-08-03T06:33:04;25.90;99.90
23803;DHT22;12082;51.786;6.018;2022-08-03T06:35:30;26.60;99.90
23803;DHT22;12082;51.786;6.018;2022-08-03T06:37:55;27.00;99.90
23803;DHT22;12082;51.786;6.018;2022-08-03T06:40:22;27.40;99.90
23803;DHT22;12082;51.786;6.018;2022-08-03T06:43:00;27.70;99.90
23803;DHT22;12082;51.786;6.018;2022-08-03T06:45:27;27.90;98.00
23803;DHT22;12082;51.786;6.018;2022-08-03T06:48:07;27.80;97.70
23803;DHT22;12082;51.786;6.018;2022-08-03T06:50:34;28.10;96.50
23803;DHT22;12082;51.786;6.018;2022-08-03T06:53:01;27.80;96.60
23803;DHT22;12082;51.786;6.018;2022-08-03T06:55:27;27.80;96.50
23803;DHT22;12082;51.786;6.018;2022-08-03T06:57:52;27.90;95.80
23803;DHT22;12082;51.786;6.018;2022-08-03T07:00:18;28.00;95.50
23803;DHT22;12082;51.786;6.018;2022-08-03T07:02:44;27.80;95.50
23803;DHT22;12082;51.786;6.018;2022-08-03T07:05:10;27.50;95.80
23803;DHT22;12082;51.786;6.018;2022-08-03T07:07:36;27.40;96.10
23803;DHT22;12082;51.786;6.018;2022-08-03T07:10:03;27.40;96.60
23803;DHT22;12082;51.786;6.018;2022-08-03T07:12:30;27.50;96.30
23803;DHT22;12082;51.786;6.018;2022-08-03T07:14:57;27.50;95.60
23803;DHT22;12082;51.786;6.018;2022-08-03T07:17:22;27.20;96.10
23803;DHT22;12082;51.786;6.018;2022-08-03T07:19:48;27.50;97.20
23803;DHT22;12082;51.786;6.018;2022-08-03T07:22:14;27.80;95.60
23803;DHT22;12082;51.786;6.018;2022-08-03T07:24:39;27.80;95.20
23803;DHT22;12082;51.786;6.018;2022-08-03T07:27:06;27.10;96.00
23803;DHT22;12082;51.786;6.018;2022-08-03T07:29:33;26.90;97.10
23803;DHT22;12082;51.786;6.018;2022-08-03T07:31:59;27.30;96.20
23803;DHT22;12082;51.786;6.018;2022-08-03T07:34:24;27.40;95.70
23803;DHT22;12082;51.786;6.018;2022-08-03T07:36:50;27.80;95.00
23803;DHT22;12082;51.786;6.018;2022-08-03T07:39:16;28.10;94.60
23803;DHT22;12082;51.786;6.018;2022-08-03T07:41:41;28.30;94.20
23803;DHT22;12082;51.786;6.018;2022-08-03T07:44:07;28.70;93.40
23803;DHT22;12082;51.786;6.018;2022-08-03T07:46:32;28.50;92.60
23803;DHT22;12082;51.786;6.018;2022-08-03T07:48:58;28.20;92.80
23803;DHT22;12082;51.786;6.018;2022-08-03T07:51:24;28.30;93.10
23803;DHT22;12082;51.786;6.018;2022-08-03T07:53:49;28.70;92.20
23803;DHT22;12082;51.786;6.018;2022-08-03T07:56:15;28.50;92.50
23803;DHT22;12082;51.786;6.018;2022-08-03T07:58:41;28.40;92.40
23803;DHT22;12082;51.786;6.018;2022-08-03T08:01:06;28.40;92.50
23803;DHT22;12082;51.786;6.018;2022-08-03T08:03:32;28.80;91.80
23803;DHT22;12082;51.786;6.018;2022-08-03T08:05:58;28.80;91.50
23803;DHT22;12082;51.786;6.018;2022-08-03T08:08:23;28.70;92.00
23803;DHT22;12082;51.786;6.018;2022-08-03T08:10:49;29.20;91.00
23803;DHT22;12082;51.786;6.018;2022-08-03T08:13:14;29.30;91.00
23803;DHT22;12082;51.786;6.018;2022-08-03T08:15:40;28.70;90.90
23803;DHT22;12082;51.786;6.018;2022-08-03T08:18:06;29.00;91.60
23803;DHT22;12082;51.786;6.018;2022-08-03T08:20:33;29.30;90.90
23803;DHT22;12082;51.786;6.018;2022-08-03T08:23:02;29.40;90.40
23803;DHT22;12082;51.786;6.018;2022-08-03T08:25:29;29.50;90.60
23803;DHT22;12082;51.786;6.018;2022-08-03T08:27:55;29.50;90.30
23803;DHT22;12082;51.786;6.018;2022-08-03T08:30:22;30.10;88.60
23803;DHT22;12082;51.786;6.018;2022-08-03T08:32:49;30.20;88.30
23803;DHT22;12082;51.786;6.018;2022-08-03T08:35:15;30.30;88.40
23803;DHT22;12082;51.786;6.018;2022-08-03T08:37:41;30.60;87.50
23803;DHT22;12082;51.786;6.018;2022-08-03T08:40:08;30.60;88.10
23803;DHT22;12082;51.786;6.018;2022-08-03T08:42:36;31.00;86.10
23803;DHT22;12082;51.786;6.018;2022-08-03T08:45:03;30.80;84.20
23803;DHT22;12082;51.786;6.018;2022-08-03T08:47:31;30.10;85.80
23803;DHT22;12082;51.786;6.018;2022-08-03T08:49:58;30.00;86.90
23803;DHT22;12082;51.786;6.018;2022-08-03T08:52:28;30.20;85.10
23803;DHT22;12082;51.786;6.018;2022-08-03T08:55:05;30.10;85.80
23803;DHT22;12082;51.786;6.018;2022-08-03T08:57:37;29.70;86.20
23803;DHT22;12082;51.786;6.018;2022-08-03T09:00:07;29.40;87.80
23803;DHT22;12082;51.786;6.018;2022-08-03T09:02:40;29.60;87.20
23803;DHT22;12082;51.786;6.018;2022-08-03T09:05:10;30.00;85.00
23803;DHT22;12082;51.786;6.018;2022-08-03T09:07:37;29.70;86.00
23803;DHT22;12082;51.786;6.018;2022-08-03T09:10:04;29.50;85.80
23803;DHT22;12082;51.786;6.018;2022-08-03T09:12:30;29.20;86.00
23803;DHT22;12082;51.786;6.018;2022-08-03T09:14:55;28.70;86.80
23803;DHT22;12082;51.786;6.018;2022-08-03T09:17:21;28.30;89.40
23803;DHT22;12082;51.786;6.018;2022-08-03T09:20:06;28.30;89.00
23803;DHT22;12082;51.786;6.018;2022-08-03T09:22:33;28.30;88.50
23803;DHT22;12082;51.786;6.018;2022-08-03T09:25:04;28.10;90.30
23803;DHT22;12082;51.786;6.018;2022-08-03T09:27:45;28.00;89.00
23803;DHT22;12082;51.786;6.018;2022-08-03T09:30:16;27.90;90.10
23803;DHT22;12082;51.786;6.018;2022-08-03T09:32:42;28.00;90.40
23803;DHT22;12082;51.786;6.018;2022-08-03T09:35:11;28.20;90.60
23803;DHT22;12082;51.786;6.018;2022-08-03T09:37:38;28.30;88.10
23803;DHT22;12082;51.786;6.018;2022-08-03T09:40:05;28.20;89.00
23803;DHT22;12082;51.786;6.018;2022-08-03T09:42:30;28.30;90.00
23803;DHT22;12082;51.786;6.018;2022-08-03T09:44:59;28.20;88.80
23803;DHT22;12082;51.786;6.018;2022-08-03T09:47:29;28.10;89.00
23803;DHT22;12082;51.786;6.018;2022-08-03T09:49:59;28.10;89.90
23803;DHT22;12082;51.786;6.018;2022-08-03T09:52:31;28.00;90.60
23803;DHT22;12082;51.786;6.018;2022-08-03T09:54:58;28.10;90.70
23803;DHT22;12082;51.786;6.018;2022-08-03T09:57:25;28.20;87.30
23803;DHT22;12082;51.786;6.018;2022-08-03T09:59:52;28.50;89.40
23803;DHT22;12082;51.786;6.018;2022-08-03T10:02:23;28.90;87.80
23803;DHT22;12082;51.786;6.018;2022-08-03T10:04:49;29.00;88.40
23803;DHT22;12082;51.786;6.018;2022-08-03T10:07:22;29.00;88.60
23803;DHT22;12082;51.786;6.018;2022-08-03T10:09:59;28.80;84.30
23803;DHT22;12082;51.786;6.018;2022-08-03T10:12:26;28.20;86.60
23803;DHT22;12082;51.786;6.018;2022-08-03T10:14:52;28.00;89.00
23803;DHT22;12082;51.786;6.018;2022-08-03T10:17:20;27.90;88.40
23803;DHT22;12082;51.786;6.018;2022-08-03T10:19:46;27.80;90.30
23803;DHT22;12082;51.786;6.018;2022-08-03T10:22:22;27.80;89.00
23803;DHT22;12082;51.786;6.018;2022-08-03T10:25:03;27.70;89.40
23803;DHT22;12082;51.786;6.018;2022-08-03T10:27:35;27.80;90.00
23803;DHT22;12082;51.786;6.018;2022-08-03T10:30:05;27.80;90.70
23803;DHT22;12082;51.786;6.018;2022-08-03T10:32:36;28.10;91.20
23803;DHT22;12082;51.786;6.018;2022-08-03T10:35:08;28.20;89.90
23803;DHT22;12082;51.786;6.018;2022-08-03T10:37:54;28.10;88.90
23803;DHT22;12082;51.786;6.018;2022-08-03T10:40:21;28.10;90.00
23803;DHT22;12082;51.786;6.018;2022-08-03T10:42:50;28.10;89.80
23803;DHT22;12082;51.786;6.018;2022-08-03T10:45:19;28.10;90.20
23803;DHT22;12082;51.786;6.018;2022-08-03T10:47:47;28.10;90.80
23803;DHT22;12082;51.786;6.018;2022-08-03T10:50:13;28.20;89.40
23803;DHT22;12082;51.786;6.018;2022-08-03T10:53:02;28.20;87.10
23803;DHT22;12082;51.786;6.018;2022-08-03T11:01:04;28.60;87.80
23803;DHT22;12082;51.786;6.018;2022-08-03T11:03:30;28.50;86.20
23803;DHT22;12082;51.786;6.018;2022-08-03T11:06:29;28.40;87.20
23803;DHT22;12082;51.786;6.018;2022-08-03T11:11:40;28.50;86.30
23803;DHT22;12082;51.786;6.018;2022-08-03T11:14:12;28.60;87.60
23803;DHT22;12082;51.786;6.018;2022-08-03T11:16:43;28.70;85.70
23803;DHT22;12082;51.786;6.018;2022-08-03T11:19:17;28.70;86.10
23803;DHT22;12082;51.786;6.018;2022-08-03T11:27:20;29.10;88.00
23803;DHT22;12082;51.786;6.018;2022-08-03T11:29:56;29.20;84.90
23803;DHT22;12082;51.786;6.018;2022-08-03T11:35:29;29.20;84.10
23803;DHT22;12082;51.786;6.018;2022-08-03T11:40:51;29.50;87.10
23803;DHT22;12082;51.786;6.018;2022-08-03T11:46:09;29.40;84.60
23803;DHT22;12082;51.786;6.018;2022-08-03T11:48:47;29.60;86.40
23803;DHT22;12082;51.786;6.018;2022-08-03T11:51:23;30.00;83.30
23803;DHT22;12082;51.786;6.018;2022-08-03T11:53:53;30.10;83.00
23803;DHT22;12082;51.786;6.018;2022-08-03T11:56:19;30.10;80.80
23803;DHT22;12082;51.786;6.018;2022-08-03T11:58:49;30.10;81.50
23803;DHT22;12082;51.786;6.018;2022-08-03T12:01:18;30.00;82.20
23803;DHT22;12082;51.786;6.018;2022-08-03T12:03:44;29.90;81.80
23803;DHT22;12082;51.786;6.018;2022-08-03T12:06:11;30.00;82.40
23803;DHT22;12082;51.786;6.018;2022-08-03T12:08:38;30.10;81.80
23803;DHT22;12082;51.786;6.018;2022-08-03T12:11:05;30.10;80.60
23803;DHT22;12082;51.786;6.018;2022-08-03T12:13:46;30.20;82.80
23803;DHT22;12082;51.786;6.018;2022-08-03T12:16:23;30.20;80.90
23803;DHT22;12082;51.786;6.018;2022-08-03T12:19:01;30.10;80.00
23803;DHT22;12082;51.786;6.018;2022-08-03T12:21:27;30.00;80.00
23803;DHT22;12082;51.786;6.018;2022-08-03T12:24:02;29.90;80.70
23803;DHT22;12082;51.786;6.018;2022-08-03T12:26:31;30.00;80.80
23803;DHT22;12082;51.786;6.018;2022-08-03T12:29:06;30.10;80.10
23803;DHT22;12082;51.786;6.018;2022-08-03T12:31:32;30.40;81.10
23803;DHT22;12082;51.786;6.018;2022-08-03T12:34:00;30.70;80.50
23803;DHT22;12082;51.786;6.018;2022-08-03T12:36:28;30.80;80.70
23803;DHT22;12082;51.786;6.018;2022-08-03T12:38:59;31.00;79.90
23803;DHT22;12082;51.786;6.018;2022-08-03T12:41:35;31.10;79.20
23803;DHT22;12082;51.786;6.018;2022-08-03T12:44:03;31.10;76.00
23803;DHT22;12082;51.786;6.018;2022-08-03T12:46:34;31.00;75.80
23803;DHT22;12082;51.786;6.018;2022-08-03T12:49:08;30.80;75.70
23803;DHT22;12082;51.786;6.018;2022-08-03T12:51:56;30.80;76.10
23803;DHT22;12082;51.786;6.018;2022-08-03T12:54:27;30.90;75.20
23803;DHT22;12082;51.786;6.018;2022-08-03T12:59:31;31.00;76.10
23803;DHT22;12082;51.786;6.018;2022-08-03T13:01:58;31.00;74.60
23803;DHT22;12082;51.786;6.018;2022-08-03T13:04:34;30.90;76.40
23803;DHT22;12082;51.786;6.018;2022-08-03T13:07:02;31.10;76.40
23803;DHT22;12082;51.786;6.018;2022-08-03T13:09:29;31.20;75.40
23803;DHT22;12082;51.786;6.018;2022-08-03T13:12:06;31.30;76.30
23803;DHT22;12082;51.786;6.018;2022-08-03T13:14:31;31.60;74.60
23803;DHT22;12082;51.786;6.018;2022-08-03T13:16:57;31.60;73.90
23803;DHT22;12082;51.786;6.018;2022-08-03T13:19:23;31.60;74.80
23803;DHT22;12082;51.786;6.018;2022-08-03T13:21:49;31.70;73.70
23803;DHT22;12082;51.786;6.018;2022-08-03T13:24:14;31.70;75.00
23803;DHT22;12082;51.786;6.018;2022-08-03T13:26:40;31.70;74.70
23803;DHT22;12082;51.786;6.018;2022-08-03T13:29:05;31.90;76.50
23803;DHT22;12082;51.786;6.018;2022-08-03T13:31:31;32.00;73.20
23803;DHT22;12082;51.786;6.018;2022-08-03T13:33:57;32.00;71.60
23803;DHT22;12082;51.786;6.018;2022-08-03T13:36:22;32.10;74.10
23803;DHT22;12082;51.786;6.018;2022-08-03T13:38:49;32.30;71.70
23803;DHT22;12082;51.786;6.018;2022-08-03T13:41:15;32.10;71.10
23803;DHT22;12082;51.786;6.018;2022-08-03T13:43:40;32.30;71.90
23803;DHT22;12082;51.786;6.018;2022-08-03T13:46:06;32.30;71.00
23803;DHT22;12082;51.786;6.018;2022-08-03T13:48:32;32.50;70.50
23803;DHT22;12082;51.786;6.018;2022-08-03T13:50:58;32.40;72.20
23803;DHT22;12082;51.786;6.018;2022-08-03T13:53:23;32.30;71.10
23803;DHT22;12082;51.786;6.018;2022-08-03T13:55:49;32.40;71.80
23803;DHT22;12082;51.786;6.018;2022-08-03T13:58:14;32.60;71.20
23803;DHT22;12082;51.786;6.018;2022-08-03T14:00:40;32.90;69.60
23803;DHT22;12082;51.786;6.018;2022-08-03T14:03:06;32.90;70.40
23803;DHT22;12082;51.786;6.018;2022-08-03T14:05:32;32.70;69.80
23803;DHT22;12082;51.786;6.018;2022-08-03T14:07:59;32.50;72.40
23803;DHT22;12082;51.786;6.018;2022-08-03T14:10:25;32.40;71.70
23803;DHT22;12082;51.786;6.018;2022-08-03T14:12:51;32.30;72.90
23803;DHT22;12082;51.786;6.018;2022-08-03T14:15:16;32.40;72.50
23803;DHT22;12082;51.786;6.018;2022-08-03T14:17:42;32.50;72.10
23803;DHT22;12082;51.786;6.018;2022-08-03T14:20:08;32.50;72.20
23803;DHT22;12082;51.786;6.018;2022-08-03T14:22:34;32.50;70.60
23803;DHT22;12082;51.786;6.018;2022-08-03T14:24:59;32.50;73.00
23803;DHT22;12082;51.786;6.018;2022-08-03T14:27:25;32.60;71.40
23803;DHT22;12082;51.786;6.018;2022-08-03T14:29:51;32.70;72.10
23803;DHT22;12082;51.786;6.018;2022-08-03T14:32:16;32.70;71.80
23803;DHT22;12082;51.786;6.018;2022-08-03T14:34:42;32.70;71.70
23803;DHT22;12082;51.786;6.018;2022-08-03T14:37:07;32.70;71.50
23803;DHT22;12082;51.786;6.018;2022-08-03T14:39:33;32.80;72.90
23803;DHT22;12082;51.786;6.018;2022-08-03T14:41:59;32.90;73.20
23803;DHT22;12082;51.786;6.018;2022-08-03T14:44:24;32.70;74.50
23803;DHT22;12082;51.786;6.018;2022-08-03T14:46:50;32.50;73.60
23803;DHT22;12082;51.786;6.018;2022-08-03T14:49:15;32.50;72.20
23803;DHT22;12082;51.786;6.018;2022-08-03T14:51:41;32.60;70.80
23803;DHT22;12082;51.786;6.018;2022-08-03T14:54:07;32.50;71.90
23803;DHT22;12082;51.786;6.018;2022-08-03T14:56:32;32.20;71.60
23803;DHT22;12082;51.786;6.018;2022-08-03T14:58:58;31.80;73.40
23803;DHT22;12082;51.786;6.018;2022-08-03T15:01:23;31.50;74.80
23803;DHT22;12082;51.786;6.018;2022-08-03T15:03:49;31.20;75.00
23803;DHT22;12082;51.786;6.018;2022-08-03T15:06:14;31.00;75.90
23803;DHT22;12082;51.786;6.018;2022-08-03T15:08:40;31.10;74.00
23803;DHT22;12082;51.786;6.018;2022-08-03T15:11:05;31.40;74.80
23803;DHT22;12082;51.786;6.018;2022-08-03T15:13:31;31.80;73.70
23803;DHT22;12082;51.786;6.018;2022-08-03T15:15:57;31.80;73.70
23803;DHT22;12082;51.786;6.018;2022-08-03T15:18:22;31.70;74.80
23803;DHT22;12082;51.786;6.018;2022-08-03T15:20:48;31.80;76.80
23803;DHT22;12082;51.786;6.018;2022-08-03T15:23:15;32.00;75.40
23803;DHT22;12082;51.786;6.018;2022-08-03T15:25:43;32.20;73.70
23803;DHT22;12082;51.786;6.018;2022-08-03T15:28:08;32.30;73.10
23803;DHT22;12082;51.786;6.018;2022-08-03T15:30:34;32.60;71.40
23803;DHT22;12082;51.786;6.018;2022-08-03T15:33:03;32.60;72.30
23803;DHT22;12082;51.786;6.018;2022-08-03T15:35:28;32.60;71.00
23803;DHT22;12082;51.786;6.018;2022-08-03T15:37:54;32.50;73.30
23803;DHT22;12082;51.786;6.018;2022-08-03T15:40:20;32.50;73.60
23803;DHT22;12082;51.786;6.018;2022-08-03T15:42:45;32.30;73.90
23803;DHT22;12082;51.786;6.018;2022-08-03T15:45:11;32.20;72.20
23803;DHT22;12082;51.786;6.018;2022-08-03T15:47:36;32.10;73.60
23803;DHT22;12082;51.786;6.018;2022-08-03T15:50:02;31.80;72.60
23803;DHT22;12082;51.786;6.018;2022-08-03T15:52:28;31.70;73.20
23803;DHT22;12082;51.786;6.018;2022-08-03T15:54:53;31.80;74.50
23803;DHT22;12082;51.786;6.018;2022-08-03T15:57:20;32.30;71.80
23803;DHT22;12082;51.786;6.018;2022-08-03T15:59:45;32.00;70.70
23803;DHT22;12082;51.786;6.018;2022-08-03T16:02:11;31.60;73.00
23803;DHT22;12082;51.786;6.018;2022-08-03T16:04:36;31.20;74.40
23803;DHT22;12082;51.786;6.018;2022-08-03T16:07:02;30.90;74.50
23803;DHT22;12082;51.786;6.018;2022-08-03T16:09:28;30.50;76.10
23803;DHT22;12082;51.786;6.018;2022-08-03T16:11:54;30.40;76.90
23803;DHT22;12082;51.786;6.018;2022-08-03T16:14:19;30.30;77.80
23803;DHT22;12082;51.786;6.018;2022-08-03T16:16:45;30.50;75.70